-> Other stations

1455

Speed(max): 8.1(11.3)knots
Direction:121° ( ESE)
Temperature: 15.8°C
Arrived: 2026-05-05 23:23:55 CEST

Past data:
hh:mmknots
Dir (°)
°C
23:21 7 10.8 ESE(120) 15.8
23:19 7.6 10.8 ESE(120) 15.8
23:17 8.1 10.3 ESE(123) 15.8
23:15 7.6 10.8 ESE(111) 15.8
23:13 7 10.8 SE(126) 15.8
23:11 7 11.3 ESE(119) 15.8
23:09 7.6 13.5 ESE(122) 15.8
23:07 7 10.3 SE(129) 15.8
23:05 7.6 11.3 ESE(123) 15.8
23:03 7.6 10.8 ESE(118) 15.8
23:01 7 10.8 SE(125) 15.8
22:59 7 10.3 SE(133) 15.8
22:57 6.5 10.8 ESE(116) 15.8
22:55 6.5 10.8 ESE(122) 15.8
15 min. averages:
hh:mmknots
Dir (°)
°C
23:15 7 13.5 ESE(123) 15.8
23:00 7.6 12.4 ESE(121) 15.8
22:45 9.2 15.7 SE(129) 16.0
22:30 9.2 15.1 SE(129) 15.9
22:15 8.6 14 SE(130) 16.1
22:00 7.6 13.5 SE(134) 16.1
21:45 8.1 14.6 SE(138) 16.0
21:30 8.1 13.5 SE(133) 15.9
21:15 7 13.5 SE(130) 15.7
21:00 6.5 10.8 SE(131) 15.7
20:45 7 13.5 SE(128) 15.4
20:30 7.6 14 SE(128) 15.3
20:15 8.1 13.5 ESE(118) 15.4
20:00 8.6 14 ESE(123) 15.6
19:45 9.2 15.1 ESE(117) 15.7
Stations at HR:
1455
-> Other regions

Desktop view
Data provided by Holfuy.
© Holfuy Weather 2026